sensor_id;sensor_type;location;lat;lon;timestamp;temperature;humidity
18581;DHT22;9420;50.876;7.012;2022-09-09T00:00:27;17.20;99.90
18581;DHT22;9420;50.876;7.012;2022-09-09T00:03:04;17.30;99.90
18581;DHT22;9420;50.876;7.012;2022-09-09T00:05:43;17.20;99.90
18581;DHT22;9420;50.876;7.012;2022-09-09T00:08:18;17.10;99.90
18581;DHT22;9420;50.876;7.012;2022-09-09T00:10:50;17.00;99.90
18581;DHT22;9420;50.876;7.012;2022-09-09T00:13:29;17.00;99.90
18581;DHT22;9420;50.876;7.012;2022-09-09T00:16:07;16.90;99.90
18581;DHT22;9420;50.876;7.012;2022-09-09T00:18:49;16.90;99.90
18581;DHT22;9420;50.876;7.012;2022-09-09T00:21:26;16.90;99.90
18581;DHT22;9420;50.876;7.012;2022-09-09T00:23:58;16.90;99.90
18581;DHT22;9420;50.876;7.012;2022-09-09T00:26:34;16.80;99.90
18581;DHT22;9420;50.876;7.012;2022-09-09T00:29:10;16.90;99.90
18581;DHT22;9420;50.876;7.012;2022-09-09T00:31:46;16.70;99.90
18581;DHT22;9420;50.876;7.012;2022-09-09T00:34:15;16.70;99.90
18581;DHT22;9420;50.876;7.012;2022-09-09T00:36:49;16.70;99.90
18581;DHT22;9420;50.876;7.012;2022-09-09T00:39:24;16.70;99.90
18581;DHT22;9420;50.876;7.012;2022-09-09T00:42:07;16.80;99.90
18581;DHT22;9420;50.876;7.012;2022-09-09T00:44:51;16.70;99.90
18581;DHT22;9420;50.876;7.012;2022-09-09T00:47:39;16.70;99.90
18581;DHT22;9420;50.876;7.012;2022-09-09T00:50:22;16.60;99.90
18581;DHT22;9420;50.876;7.012;2022-09-09T00:53:19;16.60;99.90
18581;DHT22;9420;50.876;7.012;2022-09-09T00:56:03;16.60;99.90
18581;DHT22;9420;50.876;7.012;2022-09-09T00:58:38;16.60;99.90
18581;DHT22;9420;50.876;7.012;2022-09-09T01:01:08;16.70;99.90
18581;DHT22;9420;50.876;7.012;2022-09-09T01:03:44;16.60;99.90
18581;DHT22;9420;50.876;7.012;2022-09-09T01:06:18;16.70;99.90
18581;DHT22;9420;50.876;7.012;2022-09-09T01:09:10;16.60;99.90
18581;DHT22;9420;50.876;7.012;2022-09-09T01:11:52;16.60;99.90
18581;DHT22;9420;50.876;7.012;2022-09-09T01:14:40;16.60;99.90
18581;DHT22;9420;50.876;7.012;2022-09-09T01:17:15;16.70;99.90
18581;DHT22;9420;50.876;7.012;2022-09-09T01:19:57;16.70;99.90
18581;DHT22;9420;50.876;7.012;2022-09-09T01:22:35;16.70;99.90
18581;DHT22;9420;50.876;7.012;2022-09-09T01:25:22;16.60;99.90
18581;DHT22;9420;50.876;7.012;2022-09-09T01:27:57;16.60;99.90
18581;DHT22;9420;50.876;7.012;2022-09-09T01:30:28;16.50;99.90
18581;DHT22;9420;50.876;7.012;2022-09-09T01:32:56;16.40;99.90
18581;DHT22;9420;50.876;7.012;2022-09-09T01:35:43;16.40;99.90
18581;DHT22;9420;50.876;7.012;2022-09-09T01:38:19;16.30;99.90
18581;DHT22;9420;50.876;7.012;2022-09-09T01:40:48;16.20;99.90
18581;DHT22;9420;50.876;7.012;2022-09-09T01:43:20;16.20;99.90
18581;DHT22;9420;50.876;7.012;2022-09-09T01:45:49;16.20;99.90
18581;DHT22;9420;50.876;7.012;2022-09-09T01:48:20;16.20;99.90
18581;DHT22;9420;50.876;7.012;2022-09-09T01:50:49;16.20;99.90
18581;DHT22;9420;50.876;7.012;2022-09-09T01:53:17;16.20;99.90
18581;DHT22;9420;50.876;7.012;2022-09-09T01:55:52;16.30;99.90
18581;DHT22;9420;50.876;7.012;2022-09-09T01:58:34;16.30;99.90
18581;DHT22;9420;50.876;7.012;2022-09-09T02:01:17;16.40;99.90
18581;DHT22;9420;50.876;7.012;2022-09-09T02:03:56;16.40;99.90
18581;DHT22;9420;50.876;7.012;2022-09-09T02:06:31;16.50;99.90
18581;DHT22;9420;50.876;7.012;2022-09-09T02:09:05;16.50;99.90
18581;DHT22;9420;50.876;7.012;2022-09-09T02:11:37;16.60;99.90
18581;DHT22;9420;50.876;7.012;2022-09-09T02:14:09;16.60;99.90
18581;DHT22;9420;50.876;7.012;2022-09-09T02:16:44;16.60;99.90
18581;DHT22;9420;50.876;7.012;2022-09-09T02:19:18;16.50;99.90
18581;DHT22;9420;50.876;7.012;2022-09-09T02:21:52;16.50;99.90
18581;DHT22;9420;50.876;7.012;2022-09-09T02:24:22;16.50;99.90
18581;DHT22;9420;50.876;7.012;2022-09-09T02:26:53;16.50;99.90
18581;DHT22;9420;50.876;7.012;2022-09-09T02:29:27;16.50;99.90
18581;DHT22;9420;50.876;7.012;2022-09-09T02:31:59;16.50;99.90
18581;DHT22;9420;50.876;7.012;2022-09-09T02:34:31;16.50;99.90
18581;DHT22;9420;50.876;7.012;2022-09-09T02:37:03;16.50;99.90
18581;DHT22;9420;50.876;7.012;2022-09-09T02:39:34;16.50;99.90
18581;DHT22;9420;50.876;7.012;2022-09-09T02:42:03;16.50;99.90
18581;DHT22;9420;50.876;7.012;2022-09-09T02:44:31;16.50;99.90
18581;DHT22;9420;50.876;7.012;2022-09-09T02:47:11;16.50;99.90
18581;DHT22;9420;50.876;7.012;2022-09-09T02:49:52;16.60;99.90
18581;DHT22;9420;50.876;7.012;2022-09-09T02:52:38;16.60;99.90
18581;DHT22;9420;50.876;7.012;2022-09-09T02:55:19;16.60;99.90
18581;DHT22;9420;50.876;7.012;2022-09-09T02:57:52;16.60;99.90
18581;DHT22;9420;50.876;7.012;2022-09-09T03:00:26;16.60;99.90
18581;DHT22;9420;50.876;7.012;2022-09-09T03:02:55;16.60;99.90
18581;DHT22;9420;50.876;7.012;2022-09-09T03:05:22;16.70;99.90
18581;DHT22;9420;50.876;7.012;2022-09-09T03:07:50;16.70;99.90
18581;DHT22;9420;50.876;7.012;2022-09-09T03:10:17;16.70;99.90
18581;DHT22;9420;50.876;7.012;2022-09-09T03:12:44;16.70;99.90
18581;DHT22;9420;50.876;7.012;2022-09-09T03:15:11;16.70;99.90
18581;DHT22;9420;50.876;7.012;2022-09-09T03:17:41;16.70;99.90
18581;DHT22;9420;50.876;7.012;2022-09-09T03:20:09;16.70;99.90
18581;DHT22;9420;50.876;7.012;2022-09-09T03:22:37;16.70;99.90
18581;DHT22;9420;50.876;7.012;2022-09-09T03:25:05;16.70;99.90
18581;DHT22;9420;50.876;7.012;2022-09-09T03:27:33;16.80;99.90
18581;DHT22;9420;50.876;7.012;2022-09-09T03:30:00;16.80;99.90
18581;DHT22;9420;50.876;7.012;2022-09-09T03:32:29;16.80;99.90
18581;DHT22;9420;50.876;7.012;2022-09-09T03:34:58;16.80;99.90
18581;DHT22;9420;50.876;7.012;2022-09-09T03:37:25;16.80;99.90
18581;DHT22;9420;50.876;7.012;2022-09-09T03:39:52;16.80;99.90
18581;DHT22;9420;50.876;7.012;2022-09-09T03:42:21;16.80;99.90
18581;DHT22;9420;50.876;7.012;2022-09-09T03:44:48;16.80;99.90
18581;DHT22;9420;50.876;7.012;2022-09-09T03:47:17;16.70;99.90
18581;DHT22;9420;50.876;7.012;2022-09-09T03:49:45;16.70;99.90
18581;DHT22;9420;50.876;7.012;2022-09-09T03:52:14;16.80;99.90
18581;DHT22;9420;50.876;7.012;2022-09-09T03:54:41;16.80;99.90
18581;DHT22;9420;50.876;7.012;2022-09-09T03:57:09;16.80;99.90
18581;DHT22;9420;50.876;7.012;2022-09-09T03:59:36;16.80;99.90
18581;DHT22;9420;50.876;7.012;2022-09-09T04:02:04;16.80;99.90
18581;DHT22;9420;50.876;7.012;2022-09-09T04:04:31;16.80;99.90
18581;DHT22;9420;50.876;7.012;2022-09-09T04:06:58;16.80;99.90
18581;DHT22;9420;50.876;7.012;2022-09-09T04:09:26;16.80;99.90
18581;DHT22;9420;50.876;7.012;2022-09-09T04:11:54;16.80;99.90
18581;DHT22;9420;50.876;7.012;2022-09-09T04:14:21;16.80;99.90
18581;DHT22;9420;50.876;7.012;2022-09-09T04:16:48;16.80;99.90
18581;DHT22;9420;50.876;7.012;2022-09-09T04:19:15;16.80;99.90
18581;DHT22;9420;50.876;7.012;2022-09-09T04:21:42;16.80;99.90
18581;DHT22;9420;50.876;7.012;2022-09-09T04:24:10;16.80;99.90
18581;DHT22;9420;50.876;7.012;2022-09-09T04:26:38;16.80;99.90
18581;DHT22;9420;50.876;7.012;2022-09-09T04:29:05;16.90;99.90
18581;DHT22;9420;50.876;7.012;2022-09-09T04:31:33;16.80;99.90
18581;DHT22;9420;50.876;7.012;2022-09-09T04:34:01;16.80;99.90
18581;DHT22;9420;50.876;7.012;2022-09-09T04:36:31;16.80;99.90
18581;DHT22;9420;50.876;7.012;2022-09-09T04:38:58;16.80;99.90
18581;DHT22;9420;50.876;7.012;2022-09-09T04:41:27;16.80;99.90
18581;DHT22;9420;50.876;7.012;2022-09-09T04:43:56;16.70;99.90
18581;DHT22;9420;50.876;7.012;2022-09-09T04:46:24;16.80;99.90
18581;DHT22;9420;50.876;7.012;2022-09-09T04:48:51;16.70;99.90
18581;DHT22;9420;50.876;7.012;2022-09-09T04:51:19;16.70;99.90
18581;DHT22;9420;50.876;7.012;2022-09-09T04:53:46;16.80;99.90
18581;DHT22;9420;50.876;7.012;2022-09-09T04:56:17;16.70;99.90
18581;DHT22;9420;50.876;7.012;2022-09-09T04:58:44;16.70;99.90
18581;DHT22;9420;50.876;7.012;2022-09-09T05:01:15;16.70;99.90
18581;DHT22;9420;50.876;7.012;2022-09-09T05:03:43;16.70;99.90
18581;DHT22;9420;50.876;7.012;2022-09-09T05:06:13;16.70;99.90
18581;DHT22;9420;50.876;7.012;2022-09-09T05:08:42;16.80;99.90
18581;DHT22;9420;50.876;7.012;2022-09-09T05:11:15;16.80;99.90
18581;DHT22;9420;50.876;7.012;2022-09-09T05:13:44;16.80;99.90
18581;DHT22;9420;50.876;7.012;2022-09-09T05:16:13;16.80;99.90
18581;DHT22;9420;50.876;7.012;2022-09-09T05:18:41;16.80;99.90
18581;DHT22;9420;50.876;7.012;2022-09-09T05:21:09;16.80;99.90
18581;DHT22;9420;50.876;7.012;2022-09-09T05:23:37;16.80;99.90
18581;DHT22;9420;50.876;7.012;2022-09-09T05:26:05;16.90;99.90
18581;DHT22;9420;50.876;7.012;2022-09-09T05:28:34;16.90;99.90
18581;DHT22;9420;50.876;7.012;2022-09-09T05:31:03;16.90;99.90
18581;DHT22;9420;50.876;7.012;2022-09-09T05:33:35;16.90;99.90
18581;DHT22;9420;50.876;7.012;2022-09-09T05:36:05;16.90;99.90
18581;DHT22;9420;50.876;7.012;2022-09-09T05:38:33;16.90;99.90
18581;DHT22;9420;50.876;7.012;2022-09-09T05:41:02;16.90;99.90
18581;DHT22;9420;50.876;7.012;2022-09-09T05:43:30;16.90;99.90
18581;DHT22;9420;50.876;7.012;2022-09-09T05:46:03;16.90;99.90
18581;DHT22;9420;50.876;7.012;2022-09-09T05:48:32;16.90;99.90
18581;DHT22;9420;50.876;7.012;2022-09-09T05:51:03;16.90;99.90
18581;DHT22;9420;50.876;7.012;2022-09-09T05:53:32;17.00;99.90
18581;DHT22;9420;50.876;7.012;2022-09-09T05:56:01;17.00;99.90
18581;DHT22;9420;50.876;7.012;2022-09-09T05:58:30;17.10;99.90
18581;DHT22;9420;50.876;7.012;2022-09-09T06:01:02;17.00;99.90
18581;DHT22;9420;50.876;7.012;2022-09-09T06:03:31;17.20;99.90
18581;DHT22;9420;50.876;7.012;2022-09-09T06:06:00;17.20;99.90
18581;DHT22;9420;50.876;7.012;2022-09-09T06:08:30;17.20;99.90
18581;DHT22;9420;50.876;7.012;2022-09-09T06:11:02;17.20;99.90
18581;DHT22;9420;50.876;7.012;2022-09-09T06:13:30;17.20;99.90
18581;DHT22;9420;50.876;7.012;2022-09-09T06:15:58;17.30;99.90
18581;DHT22;9420;50.876;7.012;2022-09-09T06:18:26;17.30;99.90
18581;DHT22;9420;50.876;7.012;2022-09-09T06:20:54;17.30;99.90
18581;DHT22;9420;50.876;7.012;2022-09-09T06:23:23;17.30;99.90
18581;DHT22;9420;50.876;7.012;2022-09-09T06:25:51;17.30;99.90
18581;DHT22;9420;50.876;7.012;2022-09-09T06:28:26;17.30;99.90
18581;DHT22;9420;50.876;7.012;2022-09-09T06:30:57;17.30;99.90
18581;DHT22;9420;50.876;7.012;2022-09-09T06:33:25;17.30;99.90
18581;DHT22;9420;50.876;7.012;2022-09-09T06:35:53;17.30;99.90
18581;DHT22;9420;50.876;7.012;2022-09-09T06:38:24;17.30;99.90
18581;DHT22;9420;50.876;7.012;2022-09-09T06:40:52;17.30;99.90
18581;DHT22;9420;50.876;7.012;2022-09-09T06:43:21;17.40;99.90
18581;DHT22;9420;50.876;7.012;2022-09-09T06:45:56;17.50;99.90
18581;DHT22;9420;50.876;7.012;2022-09-09T06:48:24;17.40;99.90
18581;DHT22;9420;50.876;7.012;2022-09-09T06:51:01;17.50;99.90
18581;DHT22;9420;50.876;7.012;2022-09-09T06:53:31;17.50;99.90
18581;DHT22;9420;50.876;7.012;2022-09-09T06:56:00;17.50;99.90
18581;DHT22;9420;50.876;7.012;2022-09-09T06:58:28;17.60;99.90
18581;DHT22;9420;50.876;7.012;2022-09-09T07:01:02;17.70;99.90
18581;DHT22;9420;50.876;7.012;2022-09-09T07:03:30;17.90;99.90
18581;DHT22;9420;50.876;7.012;2022-09-09T07:05:57;18.10;99.90
18581;DHT22;9420;50.876;7.012;2022-09-09T07:08:24;18.20;99.90
18581;DHT22;9420;50.876;7.012;2022-09-09T07:10:54;18.20;99.90
18581;DHT22;9420;50.876;7.012;2022-09-09T07:13:24;18.30;99.90
18581;DHT22;9420;50.876;7.012;2022-09-09T07:15:51;18.40;99.90
18581;DHT22;9420;50.876;7.012;2022-09-09T07:18:18;18.50;99.90
18581;DHT22;9420;50.876;7.012;2022-09-09T07:20:53;18.60;99.90
18581;DHT22;9420;50.876;7.012;2022-09-09T07:23:21;18.70;99.90
18581;DHT22;9420;50.876;7.012;2022-09-09T07:25:48;18.80;99.90
18581;DHT22;9420;50.876;7.012;2022-09-09T07:28:19;18.80;99.90
18581;DHT22;9420;50.876;7.012;2022-09-09T07:30:53;19.00;99.90
18581;DHT22;9420;50.876;7.012;2022-09-09T07:33:20;19.10;99.90
18581;DHT22;9420;50.876;7.012;2022-09-09T07:35:47;19.20;99.90
18581;DHT22;9420;50.876;7.012;2022-09-09T07:38:14;19.20;99.90
18581;DHT22;9420;50.876;7.012;2022-09-09T07:40:42;19.30;99.90
18581;DHT22;9420;50.876;7.012;2022-09-09T07:43:09;19.20;99.90
18581;DHT22;9420;50.876;7.012;2022-09-09T07:45:38;19.40;99.90
18581;DHT22;9420;50.876;7.012;2022-09-09T07:48:06;19.30;99.90
18581;DHT22;9420;50.876;7.012;2022-09-09T07:50:33;19.40;99.90
18581;DHT22;9420;50.876;7.012;2022-09-09T07:53:00;19.30;99.90
18581;DHT22;9420;50.876;7.012;2022-09-09T07:55:28;19.20;99.90
18581;DHT22;9420;50.876;7.012;2022-09-09T07:57:55;19.00;99.90
18581;DHT22;9420;50.876;7.012;2022-09-09T08:00:22;19.00;99.90
18581;DHT22;9420;50.876;7.012;2022-09-09T08:02:51;18.90;99.90
18581;DHT22;9420;50.876;7.012;2022-09-09T08:05:19;18.80;99.90
18581;DHT22;9420;50.876;7.012;2022-09-09T08:07:49;18.80;99.90
18581;DHT22;9420;50.876;7.012;2022-09-09T08:10:16;18.80;99.90
18581;DHT22;9420;50.876;7.012;2022-09-09T08:12:43;18.80;99.90
18581;DHT22;9420;50.876;7.012;2022-09-09T08:15:11;18.70;99.90
18581;DHT22;9420;50.876;7.012;2022-09-09T08:17:39;18.80;99.90
18581;DHT22;9420;50.876;7.012;2022-09-09T08:20:08;18.90;99.90
18581;DHT22;9420;50.876;7.012;2022-09-09T08:22:38;19.00;99.90
18581;DHT22;9420;50.876;7.012;2022-09-09T08:25:05;19.10;99.90
18581;DHT22;9420;50.876;7.012;2022-09-09T08:27:34;19.10;99.90
18581;DHT22;9420;50.876;7.012;2022-09-09T08:30:01;19.10;99.90
18581;DHT22;9420;50.876;7.012;2022-09-09T08:32:28;19.30;99.90
18581;DHT22;9420;50.876;7.012;2022-09-09T08:34:55;19.30;99.90
18581;DHT22;9420;50.876;7.012;2022-09-09T08:37:24;19.30;99.90
18581;DHT22;9420;50.876;7.012;2022-09-09T08:39:52;19.20;99.90
18581;DHT22;9420;50.876;7.012;2022-09-09T08:42:38;19.30;99.90
18581;DHT22;9420;50.876;7.012;2022-09-09T08:45:22;19.50;99.90
18581;DHT22;9420;50.876;7.012;2022-09-09T08:48:14;19.60;99.90
18581;DHT22;9420;50.876;7.012;2022-09-09T08:50:55;19.50;99.90
18581;DHT22;9420;50.876;7.012;2022-09-09T08:53:33;19.60;99.90
18581;DHT22;9420;50.876;7.012;2022-09-09T08:56:11;19.70;99.90
18581;DHT22;9420;50.876;7.012;2022-09-09T08:58:45;19.70;99.90
18581;DHT22;9420;50.876;7.012;2022-09-09T09:01:30;19.70;99.90
18581;DHT22;9420;50.876;7.012;2022-09-09T09:04:15;19.60;99.90
18581;DHT22;9420;50.876;7.012;2022-09-09T09:07:05;19.70;99.90
18581;DHT22;9420;50.876;7.012;2022-09-09T09:09:47;19.90;99.90
18581;DHT22;9420;50.876;7.012;2022-09-09T09:12:26;20.00;99.90
18581;DHT22;9420;50.876;7.012;2022-09-09T09:14:55;20.10;99.90
18581;DHT22;9420;50.876;7.012;2022-09-09T09:17:26;20.10;99.90
18581;DHT22;9420;50.876;7.012;2022-09-09T09:19:57;20.10;99.90
18581;DHT22;9420;50.876;7.012;2022-09-09T09:22:32;20.30;99.90
18581;DHT22;9420;50.876;7.012;2022-09-09T09:25:15;20.30;99.90
18581;DHT22;9420;50.876;7.012;2022-09-09T09:27:52;20.10;99.90
18581;DHT22;9420;50.876;7.012;2022-09-09T09:30:28;19.90;99.90
18581;DHT22;9420;50.876;7.012;2022-09-09T09:33:04;19.70;99.90
18581;DHT22;9420;50.876;7.012;2022-09-09T09:35:35;19.50;99.90
18581;DHT22;9420;50.876;7.012;2022-09-09T09:38:15;19.40;99.90
18581;DHT22;9420;50.876;7.012;2022-09-09T09:40:51;19.30;99.90
18581;DHT22;9420;50.876;7.012;2022-09-09T09:43:26;19.40;99.90
18581;DHT22;9420;50.876;7.012;2022-09-09T09:45:55;19.30;99.90
18581;DHT22;9420;50.876;7.012;2022-09-09T09:48:24;19.40;99.90
18581;DHT22;9420;50.876;7.012;2022-09-09T09:50:54;19.50;99.90
18581;DHT22;9420;50.876;7.012;2022-09-09T09:53:26;19.60;99.90
18581;DHT22;9420;50.876;7.012;2022-09-09T09:55:58;19.80;99.90
18581;DHT22;9420;50.876;7.012;2022-09-09T09:58:30;20.10;99.90
18581;DHT22;9420;50.876;7.012;2022-09-09T10:01:00;20.40;99.90
18581;DHT22;9420;50.876;7.012;2022-09-09T10:03:29;20.50;99.90
18581;DHT22;9420;50.876;7.012;2022-09-09T10:05:57;20.40;99.90
18581;DHT22;9420;50.876;7.012;2022-09-09T10:08:25;20.40;99.90
18581;DHT22;9420;50.876;7.012;2022-09-09T10:11:21;20.50;99.90
18581;DHT22;9420;50.876;7.012;2022-09-09T10:14:08;21.10;99.90
18581;DHT22;9420;50.876;7.012;2022-09-09T10:16:54;21.40;99.90
18581;DHT22;9420;50.876;7.012;2022-09-09T10:19:33;20.90;99.90
18581;DHT22;9420;50.876;7.012;2022-09-09T10:22:12;20.50;99.90
18581;DHT22;9420;50.876;7.012;2022-09-09T10:25:14;20.40;99.90
18581;DHT22;9420;50.876;7.012;2022-09-09T10:28:04;20.20;99.90
18581;DHT22;9420;50.876;7.012;2022-09-09T10:30:50;20.30;99.90
18581;DHT22;9420;50.876;7.012;2022-09-09T10:33:32;20.30;99.90
18581;DHT22;9420;50.876;7.012;2022-09-09T10:36:13;20.30;99.90
18581;DHT22;9420;50.876;7.012;2022-09-09T10:38:46;20.40;99.90
18581;DHT22;9420;50.876;7.012;2022-09-09T10:41:20;20.50;99.90
18581;DHT22;9420;50.876;7.012;2022-09-09T10:44:17;20.70;99.90
18581;DHT22;9420;50.876;7.012;2022-09-09T10:47:19;20.80;99.90
18581;DHT22;9420;50.876;7.012;2022-09-09T10:50:15;21.00;99.90
18581;DHT22;9420;50.876;7.012;2022-09-09T10:53:00;20.80;99.90
18581;DHT22;9420;50.876;7.012;2022-09-09T10:55:38;21.60;99.90
18581;DHT22;9420;50.876;7.012;2022-09-09T10:58:13;22.00;99.90
18581;DHT22;9420;50.876;7.012;2022-09-09T11:00:50;22.40;99.90
18581;DHT22;9420;50.876;7.012;2022-09-09T11:03:26;21.60;99.90
18581;DHT22;9420;50.876;7.012;2022-09-09T11:05:59;21.50;99.90
18581;DHT22;9420;50.876;7.012;2022-09-09T11:08:34;22.30;99.90
18581;DHT22;9420;50.876;7.012;2022-09-09T11:11:09;22.50;99.90
18581;DHT22;9420;50.876;7.012;2022-09-09T11:13:45;22.10;99.90
18581;DHT22;9420;50.876;7.012;2022-09-09T11:16:24;21.50;99.90
18581;DHT22;9420;50.876;7.012;2022-09-09T11:19:03;21.30;99.90
18581;DHT22;9420;50.876;7.012;2022-09-09T11:21:40;21.00;99.90
18581;DHT22;9420;50.876;7.012;2022-09-09T11:24:15;20.80;99.90
18581;DHT22;9420;50.876;7.012;2022-09-09T11:26:51;20.70;99.90
18581;DHT22;9420;50.876;7.012;2022-09-09T11:33:24;20.60;99.90
18581;DHT22;9420;50.876;7.012;2022-09-09T11:36:16;20.70;99.90
18581;DHT22;9420;50.876;7.012;2022-09-09T11:39:02;20.70;99.90
18581;DHT22;9420;50.876;7.012;2022-09-09T11:41:46;21.10;99.90
18581;DHT22;9420;50.876;7.012;2022-09-09T11:44:19;21.40;99.90
18581;DHT22;9420;50.876;7.012;2022-09-09T11:46:52;21.70;99.90
18581;DHT22;9420;50.876;7.012;2022-09-09T11:49:29;21.70;99.90
18581;DHT22;9420;50.876;7.012;2022-09-09T11:52:11;22.20;99.90
18581;DHT22;9420;50.876;7.012;2022-09-09T11:54:46;22.70;99.90
18581;DHT22;9420;50.876;7.012;2022-09-09T11:57:25;22.40;99.90
18581;DHT22;9420;50.876;7.012;2022-09-09T11:59:59;22.10;99.90
18581;DHT22;9420;50.876;7.012;2022-09-09T12:02:27;21.90;99.90
18581;DHT22;9420;50.876;7.012;2022-09-09T12:05:02;22.00;99.90
18581;DHT22;9420;50.876;7.012;2022-09-09T12:07:36;21.90;99.90
18581;DHT22;9420;50.876;7.012;2022-09-09T12:10:22;21.60;99.90
18581;DHT22;9420;50.876;7.012;2022-09-09T12:12:53;21.30;99.90
18581;DHT22;9420;50.876;7.012;2022-09-09T12:15:23;21.20;99.90
18581;DHT22;9420;50.876;7.012;2022-09-09T12:17:55;21.00;99.90
18581;DHT22;9420;50.876;7.012;2022-09-09T12:20:32;20.90;99.90
18581;DHT22;9420;50.876;7.012;2022-09-09T12:23:20;20.90;99.90
18581;DHT22;9420;50.876;7.012;2022-09-09T12:26:01;20.90;99.90
18581;DHT22;9420;50.876;7.012;2022-09-09T12:28:48;21.20;99.90
18581;DHT22;9420;50.876;7.012;2022-09-09T12:31:33;21.50;99.90
18581;DHT22;9420;50.876;7.012;2022-09-09T12:34:10;21.60;99.90
18581;DHT22;9420;50.876;7.012;2022-09-09T12:36:45;21.40;99.90
18581;DHT22;9420;50.876;7.012;2022-09-09T12:39:24;21.50;99.90
18581;DHT22;9420;50.876;7.012;2022-09-09T12:41:56;21.40;99.90
18581;DHT22;9420;50.876;7.012;2022-09-09T12:44:24;21.30;99.90
18581;DHT22;9420;50.876;7.012;2022-09-09T12:46:54;21.20;99.90
18581;DHT22;9420;50.876;7.012;2022-09-09T12:49:28;21.20;99.90
18581;DHT22;9420;50.876;7.012;2022-09-09T12:52:03;21.30;99.90
18581;DHT22;9420;50.876;7.012;2022-09-09T12:54:34;21.30;99.90
18581;DHT22;9420;50.876;7.012;2022-09-09T12:57:03;21.50;99.90
18581;DHT22;9420;50.876;7.012;2022-09-09T12:59:36;21.50;99.90
18581;DHT22;9420;50.876;7.012;2022-09-09T13:02:16;21.50;99.90
18581;DHT22;9420;50.876;7.012;2022-09-09T13:04:46;21.40;99.90
18581;DHT22;9420;50.876;7.012;2022-09-09T13:07:15;21.50;99.90
18581;DHT22;9420;50.876;7.012;2022-09-09T13:09:42;21.50;99.90
18581;DHT22;9420;50.876;7.012;2022-09-09T13:12:14;21.70;99.90
18581;DHT22;9420;50.876;7.012;2022-09-09T13:14:45;22.10;99.90
18581;DHT22;9420;50.876;7.012;2022-09-09T13:17:20;21.90;99.90
18581;DHT22;9420;50.876;7.012;2022-09-09T13:19:50;21.70;99.90
18581;DHT22;9420;50.876;7.012;2022-09-09T13:22:23;21.70;99.90
18581;DHT22;9420;50.876;7.012;2022-09-09T13:25:05;21.80;99.90
18581;DHT22;9420;50.876;7.012;2022-09-09T13:27:56;21.50;99.90
18581;DHT22;9420;50.876;7.012;2022-09-09T13:30:29;22.80;99.90
18581;DHT22;9420;50.876;7.012;2022-09-09T13:33:18;23.40;99.90
18581;DHT22;9420;50.876;7.012;2022-09-09T13:35:50;23.70;99.90
18581;DHT22;9420;50.876;7.012;2022-09-09T13:38:22;23.60;99.90
18581;DHT22;9420;50.876;7.012;2022-09-09T13:40:57;23.30;99.90
18581;DHT22;9420;50.876;7.012;2022-09-09T13:43:31;22.50;99.90
18581;DHT22;9420;50.876;7.012;2022-09-09T13:46:04;22.10;99.90
18581;DHT22;9420;50.876;7.012;2022-09-09T13:48:54;21.70;99.90
18581;DHT22;9420;50.876;7.012;2022-09-09T13:51:32;21.70;99.90
18581;DHT22;9420;50.876;7.012;2022-09-09T13:54:04;22.20;99.90
18581;DHT22;9420;50.876;7.012;2022-09-09T13:56:32;24.00;99.90
18581;DHT22;9420;50.876;7.012;2022-09-09T13:59:01;24.30;99.90
18581;DHT22;9420;50.876;7.012;2022-09-09T14:01:29;23.40;99.90
18581;DHT22;9420;50.876;7.012;2022-09-09T14:03:56;23.30;99.90
18581;DHT22;9420;50.876;7.012;2022-09-09T14:06:24;22.70;99.90
18581;DHT22;9420;50.876;7.012;2022-09-09T14:08:51;22.10;99.90
18581;DHT22;9420;50.876;7.012;2022-09-09T14:11:21;21.70;99.90
18581;DHT22;9420;50.876;7.012;2022-09-09T14:13:48;21.50;99.90
18581;DHT22;9420;50.876;7.012;2022-09-09T14:16:16;21.60;99.90
18581;DHT22;9420;50.876;7.012;2022-09-09T14:18:44;21.70;99.90
18581;DHT22;9420;50.876;7.012;2022-09-09T14:21:11;21.60;99.90
18581;DHT22;9420;50.876;7.012;2022-09-09T14:23:38;21.70;99.90
18581;DHT22;9420;50.876;7.012;2022-09-09T14:26:06;21.90;99.90
18581;DHT22;9420;50.876;7.012;2022-09-09T14:28:36;22.00;99.90
18581;DHT22;9420;50.876;7.012;2022-09-09T14:31:04;22.10;99.90
18581;DHT22;9420;50.876;7.012;2022-09-09T14:33:32;23.00;99.90
18581;DHT22;9420;50.876;7.012;2022-09-09T14:36:00;23.80;99.90
18581;DHT22;9420;50.876;7.012;2022-09-09T14:38:29;23.00;99.90
18581;DHT22;9420;50.876;7.012;2022-09-09T14:40:57;22.00;99.90
18581;DHT22;9420;50.876;7.012;2022-09-09T14:43:28;21.50;99.90
18581;DHT22;9420;50.876;7.012;2022-09-09T14:46:04;21.40;99.90
18581;DHT22;9420;50.876;7.012;2022-09-09T14:48:32;21.00;99.90
18581;DHT22;9420;50.876;7.012;2022-09-09T14:51:05;20.70;99.90
18581;DHT22;9420;50.876;7.012;2022-09-09T14:53:34;20.60;99.90
18581;DHT22;9420;50.876;7.012;2022-09-09T14:56:05;20.40;99.90
18581;DHT22;9420;50.876;7.012;2022-09-09T14:58:34;19.30;99.90
18581;DHT22;9420;50.876;7.012;2022-09-09T15:01:06;18.70;99.90
18581;DHT22;9420;50.876;7.012;2022-09-09T15:03:36;18.50;99.90
18581;DHT22;9420;50.876;7.012;2022-09-09T15:06:07;18.30;99.90
18581;DHT22;9420;50.876;7.012;2022-09-09T15:08:36;18.30;99.90
18581;DHT22;9420;50.876;7.012;2022-09-09T15:11:05;18.30;99.90
18581;DHT22;9420;50.876;7.012;2022-09-09T15:13:34;18.30;99.90
18581;DHT22;9420;50.876;7.012;2022-09-09T15:16:09;18.20;99.90
18581;DHT22;9420;50.876;7.012;2022-09-09T15:18:37;18.30;99.90
18581;DHT22;9420;50.876;7.012;2022-09-09T15:21:09;18.30;99.90
18581;DHT22;9420;50.876;7.012;2022-09-09T15:23:36;18.40;99.90
18581;DHT22;9420;50.876;7.012;2022-09-09T15:26:04;18.50;99.90
18581;DHT22;9420;50.876;7.012;2022-09-09T15:28:33;18.50;99.90
18581;DHT22;9420;50.876;7.012;2022-09-09T15:31:08;18.60;99.90
18581;DHT22;9420;50.876;7.012;2022-09-09T15:33:37;18.50;99.90
18581;DHT22;9420;50.876;7.012;2022-09-09T15:36:15;18.40;99.90
18581;DHT22;9420;50.876;7.012;2022-09-09T15:38:44;18.20;99.90
18581;DHT22;9420;50.876;7.012;2022-09-09T15:41:12;18.00;99.90
18581;DHT22;9420;50.876;7.012;2022-09-09T15:43:43;17.80;99.90
18581;DHT22;9420;50.876;7.012;2022-09-09T15:46:28;17.80;99.90
18581;DHT22;9420;50.876;7.012;2022-09-09T15:48:58;17.50;99.90
18581;DHT22;9420;50.876;7.012;2022-09-09T15:51:31;17.20;99.90
18581;DHT22;9420;50.876;7.012;2022-09-09T15:53:58;16.80;99.90
18581;DHT22;9420;50.876;7.012;2022-09-09T15:56:27;16.60;99.90
18581;DHT22;9420;50.876;7.012;2022-09-09T15:58:58;16.20;99.90
18581;DHT22;9420;50.876;7.012;2022-09-09T16:01:28;16.10;99.90
18581;DHT22;9420;50.876;7.012;2022-09-09T16:03:57;16.10;99.90
18581;DHT22;9420;50.876;7.012;2022-09-09T16:06:26;16.00;99.90
18581;DHT22;9420;50.876;7.012;2022-09-09T16:08:55;16.00;99.90
18581;DHT22;9420;50.876;7.012;2022-09-09T16:11:25;16.10;99.90
18581;DHT22;9420;50.876;7.012;2022-09-09T16:13:54;16.20;99.90
18581;DHT22;9420;50.876;7.012;2022-09-09T16:16:24;16.30;99.90
18581;DHT22;9420;50.876;7.012;2022-09-09T16:18:56;16.50;99.90
18581;DHT22;9420;50.876;7.012;2022-09-09T16:21:25;16.50;99.90
18581;DHT22;9420;50.876;7.012;2022-09-09T16:23:56;16.60;99.90